Weather observations for the past three days for
Piarco International Airport
Metric (Imperial)
Date Time (ast) Wind (kph) Vis. (km) Weather Sky Cond. Temperature (ºC) Relative Humidity Wind Chill (°C) Heat Index (°C) Pressure Precipitation (cm)
Air Dwpt 6 hour altimeter (cm) sea level (mb) 1 hr 3 hr 6 hr
Max. Min.
06 05:00 E 6 0.00 Partly Cloudy SCT015 26 22 79% 28 0 0.0
06 04:00 E 9 0.00 A Few Clouds FEW015 26 22 79% 28 0 0.0
06 03:00 E 13 0.00 A Few Clouds FEW015 26 22 79% 28 0 0.0
06 02:00 SE 9 0.00 Partly Cloudy SCT015 26 23 84% 28 0 0.0
06 01:00 SE 9 0.00 Partly Cloudy SCT015 26 23 84% 28 0 0.0
06 00:00 E 9 0.00 A Few Clouds FEW015 26 23 84% 28 0 0.0
05 23:00 E 9 0.00 A Few Clouds FEW015 26 23 84% 28 0 0.0
05 22:00 SE 13 0.00 Partly Cloudy SCT015 27 23 79% 30 0 0.0
05 21:00 E 22 0.00 A Few Clouds FEW015 27 23 79% 30 0 0.0
05 20:00 E 13 0.00 A Few Clouds FEW015 27 23 79% 30 0 0.0
05 19:00 E 15 0.00 A Few Clouds FEW018 28 23 74% 31 0 0.0
05 18:00 E 20 0.00 Showers in Vicinity SCT018 28 22 70% 31 0 0.0
05 17:00 SE 28 0.00 Showers in Vicinity SCT020 29 23 70% 33 0 0.0
05 16:00 E 20 0.00 Showers in Vicinity SCT020 30 22 62% 33 0 0.0
05 15:00 SE 28 0.00 Showers in Vicinity SCT020 30 23 66% 34 0 0.0
05 14:01 SE 20 0.00 Showers in Vicinity SCT020 28 23 74% 31 0 0.0
05 14:00 SE 20 0.00 Showers in Vicinity SCT020 28 23 74% 31 0 0.0
05 13:00 SE 17 0.00 Light Showers Rain FEW018 BKN048 27 23 79% 30 0 0.0
05 12:00 E 24 0.00 Showers in Vicinity FEW018 SCT050 31 22 59% 35 0 0.0
05 11:00 E 24 0.00 Showers in Vicinity FEW018 SCT028 31 22 59% 35 0 0.0
05 10:00 E 24 0.00 Light Showers Rain FEW018 SCT025 29 22 66% 32 0 0.0
05 09:00 E 22 0.00 Partly Cloudy SCT025 30 22 62% 33 0 0.0
05 08:00 E 19 0.00 A Few Clouds FEW018 28 22 70% 31 0 0.0
05 07:00 E 9 0.00 A Few Clouds FEW016 26 22 79% 28 0 0.0
05 06:00 E 9 0.00 A Few Clouds FEW016 25 22 83% 26 0 0.0
05 05:00 E 9 0.00 A Few Clouds FEW016 25 22 83% 26 0 0.0
05 04:00 E 9 0.00 A Few Clouds FEW016 25 22 83% 26 0 0.0
05 03:00 E 6 0.00 A Few Clouds FEW016 25 22 83% 26 0 0.0
05 02:00 Calm 0.00 A Few Clouds FEW016 25 22 83% 26 0 0.0
05 01:00 E 6 0.00 A Few Clouds FEW016 25 22 83% 26 0 0.0
05 00:00 Calm 0.00 A Few Clouds FEW016 25 22 83% 26 0 0.0
04 23:00 E 6 0.00 A Few Clouds FEW016 25 22 83% 26 0 0.0
04 22:00 E 6 0.00 A Few Clouds FEW018 26 22 79% 28 0 0.0
04 21:00 E 6 0.00 A Few Clouds FEW018 26 22 79% 28 0 0.0
04 20:00 Calm 0.00 A Few Clouds FEW018 26 22 79% 28 0 0.0
04 19:00 E 9 0.00 A Few Clouds FEW020 27 22 74% 29 0 0.0
04 18:00 E 15 0.00 A Few Clouds FEW022 29 21 62% 31 0 0.0
04 17:00 SE 11 0.00 A Few Clouds FEW024 29 21 62% 31 0 0.0
04 16:00 SE 19 0.00 Partly Cloudy SCT024 31 21 55% 34 0 0.0
04 15:00 E 22 0.00 Mostly Cloudy BKN026 31 21 55% 34 0 0.0
04 14:00 E 28 0.00 Mostly Cloudy BKN026 31 21 55% 34 0 0.0
04 13:00 E 22 0.00 Mostly Cloudy BKN026 31 21 55% 34 0 0.0
04 12:00 SE 22 0.00 Mostly Cloudy BKN026 31 21 55% 34 0 0.0
04 11:00 SE 22 0.00 Mostly Cloudy BKN026 30 20 55% 32 0 0.0
04 10:00 SE 19 0.00 Mostly Cloudy BKN026 30 21 59% 33 0 0.0
04 09:00 SE 24 0.00 A Few Clouds FEW022 29 21 62% 31 0 0.0
04 08:00 E 20 0.00 A Few Clouds FEW018 28 22 70% 31 0 0.0
04 07:00 E 7 0.00 A Few Clouds FEW016 26 22 79% 28 0 0.0
04 06:00 E 6 0.00 A Few Clouds FEW016 24 22 89% 24 0 0.0
04 05:00 Calm 0.00 A Few Clouds FEW016 25 22 83% 26 0 0.0
04 04:00 Calm 0.00 A Few Clouds FEW016 25 22 83% 26 0 0.0
04 03:00 Calm 0.00 A Few Clouds FEW016 25 22 83% 26 0 0.0
04 02:00 Calm 0.00 A Few Clouds FEW016 25 22 83% 26 0 0.0
04 01:00 Calm 0.00 A Few Clouds FEW016 25 22 83% 26 0 0.0
04 00:00 Calm 0.00 A Few Clouds FEW016 26 22 79% 28 0 0.0
03 23:00 SE 6 0.00 A Few Clouds FEW016 26 22 79% 28 0 0.0
03 22:00 E 9 0.00 A Few Clouds FEW016 26 22 79% 28 0 0.0
03 21:00 E 11 0.00 A Few Clouds FEW016 26 22 79% 28 0 0.0
03 20:00 Calm 0.00 A Few Clouds FEW016 25 22 83% 26 0 0.0
03 19:00 SE 11 0.00 A Few Clouds FEW020 28 22 70% 31 0 0.0
03 18:00 SE 19 0.00 Showers in Vicinity FEW022 28 21 66% 30 0 0.0
03 17:00 E 30 0.00 A Few Clouds FEW026 30 21 59% 33 0 0.0
03 16:00 SE 19 0.00 A Few Clouds FEW028 30 20 55% 32 0 0.0
03 15:00 E 22 0.00 A Few Clouds FEW028 30 21 59% 33 0 0.0
03 14:00 E 22 0.00 A Few Clouds FEW025 30 20 55% 32 0 0.0
03 13:00 E 22 0.00 A Few Clouds FEW025 30 20 55% 32 0 0.0
03 12:00 E 22 0.00 Partly Cloudy SCT022 30 21 59% 33 0 0.0
03 11:00 SE 28 0.00 A Few Clouds FEW022 30 21 59% 33 0 0.0
03 10:00 SE 30 0.00 A Few Clouds FEW020 29 21 62% 31 0 0.0
03 09:00 SE 17 0.00 A Few Clouds FEW020 29 22 66% 32 0 0.0
03 08:00 E 19 0.00 A Few Clouds FEW018 27 22 74% 29 0 0.0
03 07:00 SE 11 0.00 A Few Clouds FEW016 26 22 79% 28 0 0.0
03 06:00 E 7 0.00 A Few Clouds FEW016 24 21 83% 24 0 0.0
Date Time (ast) Wind (kph) Vis. (km) Weather Sky Cond. Air Dwpt Max. Min. Relative Humidity Wind Chill (°C) Heat Index (°C) altimeter (cm) sea level (mb) 1 hr 3 hr 6 hr
6 hour
Temperature (ºC) Pressure Precipitation (cm)